Time;durP1;ratioP1;P1;durP2;ratioP2;P2;SDS_P1;SDS_P2;PMS_P1;PMS_P2;Temp;Humidity;BMP_temperature;BMP_pressure;BME280_temperature;BME280_humidity;BME280_pressure;Samples;Min_cycle;Max_cycle;Signal;HPM_P1;HPM_P2
2023/01/15 00:01:21;;;;;;;2.40;1.17;;;10.10;99.90;;;;;;4952628;29;20895;-52
2023/01/15 00:03:47;;;;;;;2.63;1.67;;;10.10;99.90;;;;;;4952752;28;20907;-52
2023/01/15 00:06:15;;;;;;;2.17;1.50;;;10.20;99.90;;;;;;4952779;28;20430;-52
2023/01/15 00:08:42;;;;;;;2.10;1.30;;;9.80;99.90;;;;;;4952595;28;20813;-52
2023/01/15 00:11:09;;;;;;;3.63;1.40;;;10.00;99.90;;;;;;4952572;29;20447;-51
2023/01/15 00:13:35;;;;;;;2.13;1.10;;;10.00;99.90;;;;;;4952318;28;20425;-52
2023/01/15 00:16:03;;;;;;;3.67;1.67;;;10.40;99.90;;;;;;5018879;28;20453;-52
2023/01/15 00:18:30;;;;;;;2.00;1.30;;;10.10;99.90;;;;;;4951182;28;20456;-52
2023/01/15 00:20:59;;;;;;;1.80;1.30;;;10.10;99.90;;;;;;4952720;28;20450;-52
2023/01/15 00:28:59;;;;;;;2.83;1.27;;;9.70;99.90;;;;;;4951594;28;20447;-52
2023/01/15 00:31:26;;;;;;;3.30;1.57;;;10.30;99.90;;;;;;4952470;28;20454;-51
2023/01/15 00:33:53;;;;;;;1.63;1.17;;;10.30;99.90;;;;;;5018368;28;20477;-52
2023/01/15 00:36:19;;;;;;;1.70;1.03;;;10.20;99.90;;;;;;4952490;28;20462;-51
2023/01/15 00:38:47;;;;;;;6.23;1.60;;;9.90;99.90;;;;;;4952080;28;20431;-51
2023/01/15 00:41:14;;;;;;;2.10;1.20;;;10.10;99.90;;;;;;4952313;28;20435;-52
2023/01/15 00:43:40;;;;;;;4.50;1.30;;;9.70;99.90;;;;;;5018346;28;20471;-51
2023/01/15 00:46:07;;;;;;;3.23;1.60;;;10.10;99.90;;;;;;5018441;28;20451;-51
2023/01/15 00:48:34;;;;;;;1.60;1.30;;;10.00;99.90;;;;;;4951667;28;20818;-50
2023/01/15 00:51:01;;;;;;;1.73;1.10;;;10.10;99.90;;;;;;5018175;28;20430;-52
2023/01/15 00:53:27;;;;;;;1.80;1.10;;;10.20;99.90;;;;;;5017962;28;20446;-52
2023/01/15 00:55:55;;;;;;;2.50;1.07;;;10.20;99.90;;;;;;5018202;28;20487;-51
2023/01/15 00:58:22;;;;;;;4.13;1.10;;;10.20;99.90;;;;;;4951776;28;20440;-52
2023/01/15 01:00:53;;;;;;;1.97;1.10;;;10.60;99.90;;;;;;5034941;28;20862;-51
2023/01/15 01:03:19;;;;;;;1.70;1.10;;;10.20;99.90;;;;;;5017588;28;20454;-51
2023/01/15 01:05:46;;;;;;;1.47;0.87;;;9.90;99.90;;;;;;4952098;28;20472;-52
2023/01/15 01:08:14;;;;;;;2.37;1.30;;;10.00;99.90;;;;;;5017732;28;20454;-52
2023/01/15 01:10:40;;;;;;;1.40;1.07;;;10.60;99.90;;;;;;4951975;28;20406;-52
2023/01/15 01:13:08;;;;;;;1.70;1.03;;;10.60;99.90;;;;;;4951897;28;20440;-51
2023/01/15 01:15:35;;;;;;;1.40;0.93;;;10.30;99.90;;;;;;4951615;28;20969;-51
2023/01/15 01:18:03;;;;;;;1.87;1.03;;;10.50;99.90;;;;;;5017842;28;20434;-51
2023/01/15 01:20:30;;;;;;;1.20;0.87;;;10.30;99.90;;;;;;4951621;28;20410;-52
2023/01/15 01:22:57;;;;;;;3.00;1.20;;;10.10;99.90;;;;;;5017771;28;20458;-52
2023/01/15 01:25:24;;;;;;;1.67;1.07;;;10.10;99.90;;;;;;4951620;29;20410;-51
2023/01/15 01:27:50;;;;;;;2.60;1.13;;;9.70;99.90;;;;;;4951694;28;20435;-51
2023/01/15 01:30:22;;;;;;;1.50;1.00;;;10.30;99.90;;;;;;4951270;28;20497;-52
2023/01/15 01:32:49;;;;;;;3.00;1.13;;;10.30;99.90;;;;;;4951208;28;20468;-51
2023/01/15 01:35:15;;;;;;;2.10;1.10;;;10.60;99.90;;;;;;5017510;28;20509;-51
2023/01/15 01:37:42;;;;;;;1.70;0.93;;;10.30;99.90;;;;;;4951508;28;20975;-51
2023/01/15 01:40:10;;;;;;;1.30;0.90;;;10.40;99.90;;;;;;5017160;28;20428;-52
2023/01/15 01:42:37;;;;;;;1.60;0.80;;;10.40;99.90;;;;;;5017368;28;20421;-52
2023/01/15 01:45:11;;;;;;;1.10;0.70;;;10.30;99.90;;;;;;4951244;29;21018;-52
2023/01/15 01:47:40;;;;;;;1.50;1.03;;;10.40;99.90;;;;;;5017340;28;20422;-51
2023/01/15 01:50:11;;;;;;;2.63;0.90;;;10.40;99.90;;;;;;4950939;29;20444;-51
2023/01/15 01:52:43;;;;;;;2.47;1.17;;;10.40;99.90;;;;;;5017384;28;20434;-52
2023/01/15 01:55:13;;;;;;;1.67;0.93;;;10.60;99.90;;;;;;4951281;29;20896;-52
2023/01/15 01:57:40;;;;;;;1.40;0.90;;;9.80;99.90;;;;;;5016924;28;20454;-52
2023/01/15 02:00:10;;;;;;;1.10;0.80;;;10.30;99.90;;;;;;5016812;28;20432;-51
2023/01/15 02:02:47;;;;;;;2.03;1.00;;;10.40;99.90;;;;;;5001564;28;20539;-51
2023/01/15 02:05:18;;;;;;;1.50;1.00;;;10.40;99.90;;;;;;5017357;28;20428;-52
2023/01/15 02:07:44;;;;;;;1.83;1.00;;;10.40;99.90;;;;;;4951261;28;20759;-52
2023/01/15 02:10:15;;;;;;;2.37;0.80;;;10.60;99.90;;;;;;4950705;28;20413;-51
2023/01/15 02:12:49;;;;;;;1.90;1.00;;;10.30;99.90;;;;;;4950875;28;20407;-52
2023/01/15 02:15:22;;;;;;;1.57;1.00;;;10.30;99.90;;;;;;4951157;28;20456;-51
2023/01/15 02:17:56;;;;;;;2.13;0.97;;;10.30;99.90;;;;;;5016656;28;20462;-51
2023/01/15 02:20:32;;;;;;;1.70;1.17;;;10.60;99.90;;;;;;5016933;28;20457;-52
2023/01/15 02:23:35;;;;;;;1.33;0.70;;;10.70;99.90;;;;;;4950867;28;20438;-52
2023/01/15 02:26:24;;;;;;;1.40;0.90;;;10.30;99.90;;;;;;4970751;28;20417;-51
2023/01/15 02:28:55;;;;;;;2.30;1.07;;;10.40;99.90;;;;;;5009858;28;20460;-51
2023/01/15 02:31:27;;;;;;;1.70;1.00;;;10.50;99.90;;;;;;5017051;28;20448;-51
2023/01/15 02:34:00;;;;;;;3.13;1.00;;;10.30;99.90;;;;;;5017148;28;20944;-51
2023/01/15 02:36:32;;;;;;;2.20;1.00;;;10.40;99.90;;;;;;5017207;28;20849;-52
2023/01/15 02:39:04;;;;;;;3.63;1.40;;;10.50;99.90;;;;;;5016778;28;20437;-51
2023/01/15 02:41:35;;;;;;;1.27;0.70;;;10.60;99.90;;;;;;5018652;28;20815;-52
2023/01/15 02:44:07;;;;;;;1.33;0.90;;;10.40;99.90;;;;;;5020650;28;20483;-52
2023/01/15 02:46:37;;;;;;;1.70;0.80;;;10.40;99.90;;;;;;5020402;28;20423;-51
2023/01/15 02:49:10;;;;;;;1.70;0.93;;;10.10;99.90;;;;;;5020103;28;20938;-52
2023/01/15 02:51:44;;;;;;;1.10;0.60;;;10.50;99.90;;;;;;5020731;28;20463;-51
2023/01/15 02:54:15;;;;;;;2.17;1.17;;;10.20;99.90;;;;;;5020479;28;20447;-52
2023/01/15 02:56:45;;;;;;;1.50;0.90;;;10.40;99.90;;;;;;5020280;28;20460;-53
2023/01/15 02:59:20;;;;;;;2.97;0.83;;;10.40;99.90;;;;;;5020135;28;20454;-51
2023/01/15 03:01:50;;;;;;;5.87;1.00;;;9.90;99.90;;;;;;5020128;28;20459;-51
2023/01/15 03:04:22;;;;;;;1.27;0.77;;;10.60;99.90;;;;;;5020329;28;20520;-52
2023/01/15 03:06:53;;;;;;;3.07;0.90;;;10.40;99.90;;;;;;5020603;28;20727;-51
2023/01/15 03:09:23;;;;;;;1.40;0.80;;;10.30;99.90;;;;;;5019915;28;20475;-52
2023/01/15 03:11:59;;;;;;;1.80;0.90;;;10.10;99.90;;;;;;5020488;28;20466;-52
2023/01/15 03:14:35;;;;;;;2.10;0.80;;;10.30;99.90;;;;;;5020335;28;20514;-51
2023/01/15 03:17:08;;;;;;;1.33;1.00;;;9.80;99.90;;;;;;5019960;28;20533;-51
2023/01/15 03:19:42;;;;;;;1.30;0.80;;;10.40;99.90;;;;;;5036058;28;20422;-52
2023/01/15 03:22:19;;;;;;;1.60;0.70;;;10.30;99.90;;;;;;5019989;28;20464;-51
2023/01/15 03:24:49;;;;;;;3.00;0.93;;;10.70;99.90;;;;;;5019686;28;20443;-52
2023/01/15 03:27:18;;;;;;;1.97;1.00;;;10.40;99.90;;;;;;5019968;28;20518;-52
2023/01/15 03:29:54;;;;;;;2.30;0.90;;;10.20;99.90;;;;;;5019331;28;20502;-51
2023/01/15 03:32:22;;;;;;;6.33;1.30;;;10.50;99.90;;;;;;5019662;28;20442;-51
2023/01/15 03:34:51;;;;;;;2.60;1.10;;;10.50;99.90;;;;;;5019482;28;21070;-51
2023/01/15 03:37:20;;;;;;;1.23;0.90;;;10.30;99.90;;;;;;5019939;28;20545;-50
2023/01/15 03:39:48;;;;;;;2.23;1.07;;;10.60;99.90;;;;;;5019459;28;20427;-51
2023/01/15 03:42:35;;;;;;;1.57;0.70;;;10.20;99.90;;;;;;5019933;28;20432;-51
2023/01/15 03:45:11;;;;;;;1.43;0.90;;;10.30;99.90;;;;;;5036067;28;20466;-51
2023/01/15 03:47:45;;;;;;;1.73;0.80;;;9.80;99.90;;;;;;5019414;28;20957;-51
2023/01/15 03:50:19;;;;;;;2.73;0.90;;;10.60;99.90;;;;;;5019224;28;20439;-51
2023/01/15 03:52:50;;;;;;;2.10;1.10;;;10.90;99.90;;;;;;5018355;28;20471;-51
2023/01/15 03:55:24;;;;;;;1.50;0.80;;;10.40;99.90;;;;;;5019280;28;20524;-51
2023/01/15 03:58:01;;;;;;;1.53;0.90;;;10.60;99.90;;;;;;5019379;28;20478;-51
2023/01/15 04:00:38;;;;;;;3.50;1.40;;;10.30;99.90;;;;;;5019247;28;20522;-51
2023/01/15 04:03:08;;;;;;;2.70;0.90;;;10.60;99.90;;;;;;5018993;28;20967;-51
2023/01/15 04:05:37;;;;;;;1.47;1.00;;;10.80;99.90;;;;;;5019061;28;20448;-51
2023/01/15 04:08:06;;;;;;;2.23;1.00;;;10.60;99.90;;;;;;5018947;28;20856;-51
2023/01/15 04:10:35;;;;;;;2.37;0.87;;;10.50;99.90;;;;;;5018924;28;20513;-51
2023/01/15 04:13:04;;;;;;;2.60;0.90;;;10.40;99.90;;;;;;5019007;28;20548;-52
2023/01/15 04:15:33;;;;;;;1.90;1.40;;;10.50;99.90;;;;;;5018838;28;20431;-51
2023/01/15 04:17:59;;;;;;;1.63;0.80;;;10.40;99.90;;;;;;5019113;28;20585;-51
2023/01/15 04:20:28;;;;;;;1.83;0.70;;;10.30;99.90;;;;;;5018885;28;20437;-51
2023/01/15 04:22:55;;;;;;;1.43;0.90;;;10.10;99.90;;;;;;5035435;28;20447;-52
2023/01/15 04:25:22;;;;;;;1.50;0.80;;;9.40;99.90;;;;;;4952719;28;20442;-51
2023/01/15 04:27:49;;;;;;;2.03;0.80;;;10.00;99.90;;;;;;4952540;28;20431;-51
2023/01/15 04:30:18;;;;;;;1.60;0.73;;;10.20;99.90;;;;;;4952000;28;20467;-51
2023/01/15 04:32:48;;;;;;;1.70;0.70;;;9.90;99.90;;;;;;4952184;28;20458;-51
2023/01/15 04:35:15;;;;;;;1.90;0.90;;;9.10;99.90;;;;;;4952609;28;20435;-51
2023/01/15 04:37:42;;;;;;;1.50;0.73;;;9.80;99.90;;;;;;4952509;28;20453;-51
2023/01/15 04:44:05;;;;;;;3.10;0.90;;;9.50;99.90;;;;;;4952373;28;20816;-51
2023/01/15 04:45:40;;;;;;;1.90;0.67;;;9.30;99.90;;;;;;4952566;28;20770;-51
2023/01/15 04:48:08;;;;;;;2.37;0.73;;;9.30;99.90;;;;;;4952042;29;20417;-51
2023/01/15 04:50:35;;;;;;;2.10;0.63;;;8.90;99.90;;;;;;4952366;28;20421;-51
2023/01/15 04:53:01;;;;;;;1.10;0.50;;;8.70;99.90;;;;;;4951977;28;20433;-50
2023/01/15 04:55:29;;;;;;;1.40;0.80;;;8.80;99.90;;;;;;4952189;28;20431;-51
2023/01/15 04:57:56;;;;;;;1.90;1.03;;;8.90;99.90;;;;;;4952157;28;20442;-51
2023/01/15 05:00:23;;;;;;;2.10;0.70;;;8.80;99.90;;;;;;4951690;29;20406;-51
2023/01/15 05:02:50;;;;;;;2.83;0.60;;;8.80;99.90;;;;;;4951943;28;20457;-50
2023/01/15 05:05:18;;;;;;;1.50;0.80;;;8.80;99.90;;;;;;4951825;28;20899;-51
2023/01/15 05:07:44;;;;;;;1.20;0.67;;;8.70;99.90;;;;;;4952516;28;20443;-51
2023/01/15 05:10:11;;;;;;;2.50;0.60;;;8.00;99.90;;;;;;4951625;28;20420;-50
2023/01/15 05:12:38;;;;;;;1.40;0.60;;;8.70;99.90;;;;;;4951998;28;20417;-51
2023/01/15 05:15:05;;;;;;;1.93;0.70;;;8.70;99.90;;;;;;4951932;28;20987;-51
2023/01/15 05:17:32;;;;;;;1.73;0.80;;;8.80;99.90;;;;;;4951651;29;20495;-51
2023/01/15 05:19:59;;;;;;;1.10;0.60;;;8.60;99.90;;;;;;4951617;28;20853;-51
2023/01/15 05:22:27;;;;;;;2.40;0.80;;;8.80;99.90;;;;;;4951721;28;20494;-51
2023/01/15 05:24:53;;;;;;;2.17;0.80;;;8.90;99.90;;;;;;4951869;28;20414;-51
2023/01/15 05:27:20;;;;;;;2.50;1.13;;;9.20;99.90;;;;;;4951754;28;20410;-51
2023/01/15 05:29:47;;;;;;;1.40;0.70;;;8.70;99.90;;;;;;4951471;28;20510;-51
2023/01/15 05:32:13;;;;;;;1.43;0.60;;;8.30;99.90;;;;;;4951613;28;20547;-51
2023/01/15 05:34:40;;;;;;;3.40;1.00;;;8.50;99.90;;;;;;4951418;28;20459;-51
2023/01/15 05:37:07;;;;;;;1.53;0.70;;;8.50;99.90;;;;;;4951461;28;20470;-51
2023/01/15 05:39:35;;;;;;;3.23;0.63;;;8.80;99.90;;;;;;4951283;28;20929;-52
2023/01/15 05:42:02;;;;;;;2.23;0.80;;;8.50;99.90;;;;;;4951491;29;20446;-51
2023/01/15 05:44:29;;;;;;;3.47;0.63;;;8.80;99.90;;;;;;4951298;28;20425;-50
2023/01/15 05:46:58;;;;;;;2.40;0.80;;;8.60;99.90;;;;;;5017319;28;20418;-50
2023/01/15 05:49:27;;;;;;;2.20;0.87;;;8.60;99.90;;;;;;4950932;29;20807;-51
2023/01/15 05:51:54;;;;;;;1.43;0.80;;;8.60;99.90;;;;;;4951447;28;20516;-51
2023/01/15 05:54:23;;;;;;;4.43;1.23;;;8.70;99.90;;;;;;4951300;28;20515;-50
2023/01/15 05:56:51;;;;;;;1.60;0.83;;;8.50;99.90;;;;;;4951141;29;20410;-51
2023/01/15 05:59:21;;;;;;;1.10;0.67;;;8.80;99.90;;;;;;4950983;28;20446;-51
2023/01/15 06:01:47;;;;;;;4.27;1.23;;;8.90;99.90;;;;;;4950990;29;20414;-51
2023/01/15 06:04:16;;;;;;;1.73;0.83;;;8.80;99.90;;;;;;4951632;28;20445;-51
2023/01/15 06:06:43;;;;;;;2.17;0.90;;;8.70;99.90;;;;;;4951207;28;20479;-51
2023/01/15 06:09:10;;;;;;;2.77;0.97;;;8.10;99.90;;;;;;4950728;29;20431;-51
2023/01/15 06:11:37;;;;;;;1.87;1.00;;;8.80;99.90;;;;;;4951103;29;20418;-51
2023/01/15 06:14:05;;;;;;;1.07;0.60;;;8.80;99.90;;;;;;4950964;28;20840;-51
2023/01/15 06:16:32;;;;;;;3.40;1.10;;;8.70;99.90;;;;;;4952553;28;20424;-51
2023/01/15 06:19:02;;;;;;;2.57;0.90;;;8.70;99.90;;;;;;4954088;28;20461;-51
2023/01/15 06:21:29;;;;;;;5.20;1.20;;;8.20;99.90;;;;;;4954471;28;20435;-51
2023/01/15 06:23:56;;;;;;;2.20;1.03;;;8.80;99.90;;;;;;4954223;28;20458;-51
2023/01/15 06:26:23;;;;;;;2.70;0.93;;;8.90;99.90;;;;;;4954365;29;20431;-52
2023/01/15 06:28:50;;;;;;;4.93;1.37;;;8.60;99.90;;;;;;4953774;29;20895;-51
2023/01/15 06:31:19;;;;;;;2.33;1.50;;;8.70;99.90;;;;;;4954625;28;20861;-51
2023/01/15 06:33:46;;;;;;;2.27;1.00;;;8.70;99.90;;;;;;4954371;28;20467;-51
2023/01/15 06:36:15;;;;;;;1.77;1.00;;;8.80;99.90;;;;;;4954202;29;20405;-50
2023/01/15 06:38:43;;;;;;;4.47;1.00;;;8.80;99.90;;;;;;4953739;29;20737;-51
2023/01/15 06:49:27;;;;;;;6.17;1.20;;;8.60;99.90;;;;;;4953881;28;20441;-51
2023/01/15 06:51:53;;;;;;;1.50;0.77;;;9.00;99.90;;;;;;4954037;28;20837;-51
2023/01/15 06:54:20;;;;;;;1.70;0.80;;;8.50;99.90;;;;;;4953842;28;20433;-51
2023/01/15 06:56:46;;;;;;;1.73;0.90;;;8.50;99.90;;;;;;4953751;29;20438;-52
2023/01/15 06:59:13;;;;;;;2.20;0.97;;;8.60;99.90;;;;;;4953503;28;20457;-51
2023/01/15 07:01:41;;;;;;;1.20;0.63;;;8.40;99.90;;;;;;4953843;29;20496;-51
2023/01/15 07:04:08;;;;;;;1.70;0.80;;;9.00;99.90;;;;;;4953506;28;20512;-51
2023/01/15 07:06:34;;;;;;;1.50;0.97;;;8.50;99.90;;;;;;4953807;28;20409;-52
2023/01/15 07:09:01;;;;;;;4.80;0.97;;;8.70;99.90;;;;;;4953286;29;20409;-51
2023/01/15 07:11:27;;;;;;;2.50;0.73;;;8.70;99.90;;;;;;4953546;29;20414;-52
2023/01/15 07:14:04;;;;;;;2.37;1.07;;;8.50;99.90;;;;;;4953724;28;20455;-50
2023/01/15 07:16:31;;;;;;;2.80;1.20;;;8.10;99.90;;;;;;4953472;29;20438;-50
2023/01/15 07:18:59;;;;;;;1.83;0.90;;;8.60;99.90;;;;;;4952978;29;20976;-51
2023/01/15 07:21:26;;;;;;;1.80;1.00;;;8.70;99.90;;;;;;4953545;28;20446;-51
2023/01/15 07:23:53;;;;;;;5.40;1.07;;;8.70;99.90;;;;;;4953567;28;20470;-51
2023/01/15 07:26:19;;;;;;;3.40;1.40;;;7.90;99.90;;;;;;4953298;29;20459;-51
2023/01/15 07:28:46;;;;;;;2.13;1.40;;;8.30;99.90;;;;;;4952736;29;20769;-52
2023/01/15 07:31:13;;;;;;;3.80;1.23;;;8.60;99.90;;;;;;4953517;28;20406;-51
2023/01/15 07:33:39;;;;;;;1.53;0.80;;;8.20;99.90;;;;;;4953288;28;20470;-51
2023/01/15 07:36:08;;;;;;;1.93;1.00;;;8.60;99.90;;;;;;4953420;28;20806;-52
2023/01/15 07:38:34;;;;;;;2.10;1.50;;;8.70;99.90;;;;;;4952776;29;20457;-51
2023/01/15 07:52:00;;;;;;;2.60;1.00;;;8.40;99.90;;;;;;4953284;28;20430;-51
2023/01/15 07:54:28;;;;;;;2.53;1.00;;;8.70;99.90;;;;;;4952924;28;20438;-51
2023/01/15 07:56:55;;;;;;;2.70;1.23;;;8.50;99.90;;;;;;4953045;28;20427;-51
2023/01/15 07:59:24;;;;;;;2.10;1.00;;;8.30;99.90;;;;;;4952610;28;20457;-51
2023/01/15 08:01:50;;;;;;;2.50;1.03;;;8.40;99.90;;;;;;4952961;28;20421;-51
2023/01/15 08:04:17;;;;;;;3.97;1.47;;;8.60;99.90;;;;;;4952708;28;21023;-51
2023/01/15 08:06:44;;;;;;;3.00;1.27;;;8.30;99.90;;;;;;4953071;28;20467;-51
2023/01/15 08:09:12;;;;;;;1.83;1.00;;;8.20;99.90;;;;;;4952623;28;20419;-51
2023/01/15 08:17:07;;;;;;;3.60;1.10;;;8.30;99.90;;;;;;4952516;28;20766;-50
2023/01/15 08:19:33;;;;;;;2.40;1.47;;;8.40;99.90;;;;;;4952538;28;20819;-51
2023/01/15 08:22:01;;;;;;;2.30;1.10;;;8.20;99.90;;;;;;4952830;28;20414;-51
2023/01/15 08:24:29;;;;;;;4.83;1.30;;;8.20;99.90;;;;;;4952596;28;20442;-52
2023/01/15 08:26:55;;;;;;;1.43;0.93;;;8.20;99.90;;;;;;4952461;28;20466;-50
2023/01/15 08:29:22;;;;;;;2.57;1.10;;;8.40;99.90;;;;;;4952236;28;20435;-51
2023/01/15 08:31:49;;;;;;;3.17;1.00;;;8.50;99.90;;;;;;4952077;29;20410;-51
2023/01/15 08:34:15;;;;;;;2.63;1.40;;;8.30;99.90;;;;;;4952097;28;20430;-52
2023/01/15 08:36:42;;;;;;;2.57;1.10;;;8.60;99.90;;;;;;4952446;28;20417;-51
2023/01/15 08:39:09;;;;;;;3.43;1.43;;;7.90;99.90;;;;;;4951005;28;20464;-51
2023/01/15 08:41:37;;;;;;;4.27;1.47;;;8.30;99.90;;;;;;4952181;28;20444;-51
2023/01/15 08:44:04;;;;;;;3.57;1.33;;;8.60;99.90;;;;;;4952203;28;20517;-51
2023/01/15 08:46:31;;;;;;;3.63;1.30;;;8.50;99.90;;;;;;4951857;29;20903;-51
2023/01/15 08:48:57;;;;;;;4.50;1.33;;;8.50;99.90;;;;;;4951725;29;20410;-51
2023/01/15 08:51:24;;;;;;;3.90;1.40;;;8.50;99.90;;;;;;4952037;28;20419;-52
2023/01/15 08:53:51;;;;;;;2.67;1.67;;;8.60;99.90;;;;;;4951886;28;20469;-51
2023/01/15 08:56:19;;;;;;;2.63;1.30;;;8.10;99.90;;;;;;4952134;28;20420;-51
2023/01/15 08:58:47;;;;;;;4.57;1.33;;;8.70;99.90;;;;;;4951435;28;20465;-51
2023/01/15 09:01:14;;;;;;;2.20;1.40;;;8.30;99.90;;;;;;4952108;28;20410;-51
2023/01/15 09:03:41;;;;;;;3.40;1.57;;;8.40;99.90;;;;;;4951731;28;20453;-51
2023/01/15 09:06:09;;;;;;;2.80;2.13;;;8.80;99.90;;;;;;4951813;28;20918;-51
2023/01/15 09:08:37;;;;;;;4.60;2.90;;;8.60;99.90;;;;;;4951790;29;20406;-51
2023/01/15 09:11:06;;;;;;;3.43;1.70;;;8.50;99.90;;;;;;4951882;28;20414;-51
2023/01/15 09:13:33;;;;;;;2.43;1.40;;;8.70;99.90;;;;;;4951689;28;20463;-51
2023/01/15 09:16:01;;;;;;;2.67;1.47;;;8.70;99.90;;;;;;4951871;28;20930;-51
2023/01/15 09:18:29;;;;;;;2.43;1.30;;;8.50;99.90;;;;;;4951177;28;20457;-51
2023/01/15 09:20:55;;;;;;;1.70;1.17;;;8.50;99.90;;;;;;4951767;28;20413;-51
2023/01/15 09:23:22;;;;;;;2.60;1.20;;;8.40;99.90;;;;;;5017648;28;20465;-51
2023/01/15 09:25:52;;;;;;;3.97;1.90;;;8.60;99.90;;;;;;4951759;28;20406;-51
2023/01/15 09:28:19;;;;;;;1.87;1.33;;;8.50;99.90;;;;;;4951096;29;20432;-51
2023/01/15 09:30:45;;;;;;;4.67;1.40;;;8.90;99.90;;;;;;4951415;28;20422;-50
2023/01/15 09:33:13;;;;;;;2.97;1.50;;;8.70;99.90;;;;;;4950599;28;20441;-50
2023/01/15 09:35:40;;;;;;;1.90;1.37;;;8.80;99.90;;;;;;4951486;28;20414;-50
2023/01/15 09:38:07;;;;;;;3.10;2.17;;;9.20;99.90;;;;;;4950921;29;20453;-52
2023/01/15 09:40:50;;;;;;;2.33;1.67;;;8.60;99.90;;;;;;4951093;29;20417;-50
2023/01/15 09:43:29;;;;;;;3.23;1.93;;;8.70;99.90;;;;;;4951338;28;20470;-52
2023/01/15 09:46:00;;;;;;;4.50;3.03;;;8.60;99.90;;;;;;4950980;29;20409;-51
2023/01/15 09:48:43;;;;;;;2.47;1.63;;;8.60;99.90;;;;;;4950697;29;20410;-51
2023/01/15 09:51:22;;;;;;;2.10;1.30;;;8.70;99.90;;;;;;4951071;28;21191;-50
2023/01/15 09:54:14;;;;;;;1.53;1.00;;;8.40;99.90;;;;;;4951465;28;20444;-50
2023/01/15 09:56:41;;;;;;;2.70;1.30;;;8.60;99.90;;;;;;5016963;28;20818;-50
2023/01/15 09:59:20;;;;;;;2.10;1.20;;;8.80;99.90;;;;;;4950556;29;20478;-50
2023/01/15 10:01:49;;;;;;;4.03;1.10;;;8.90;99.90;;;;;;4950962;28;20439;-50
2023/01/15 10:04:30;;;;;;;2.13;1.40;;;9.00;99.90;;;;;;4950968;28;20460;-50
2023/01/15 10:07:03;;;;;;;2.90;1.37;;;9.00;99.90;;;;;;4950936;29;20417;-51
2023/01/15 10:09:36;;;;;;;2.13;1.50;;;8.30;99.90;;;;;;5016378;28;20959;-51
2023/01/15 10:15:05;;;;;;;2.00;1.10;;;9.10;99.90;;;;;;4950831;28;20433;-51
2023/01/15 10:17:40;;;;;;;3.63;2.00;;;8.80;99.90;;;;;;4950620;28;20441;-51
2023/01/15 10:20:14;;;;;;;2.70;1.30;;;9.30;99.90;;;;;;4950146;28;20541;-51
2023/01/15 10:23:05;;;;;;;3.70;1.80;;;9.00;99.90;;;;;;4950467;28;20435;-51
2023/01/15 10:25:39;;;;;;;4.93;1.87;;;8.40;99.90;;;;;;4950708;28;20440;-51
2023/01/15 10:28:16;;;;;;;4.47;2.70;;;9.40;99.90;;;;;;4950246;28;20444;-50
2023/01/15 10:30:47;;;;;;;3.00;1.50;;;9.10;99.90;;;;;;4950720;28;20418;-50
2023/01/15 10:33:30;;;;;;;2.37;1.30;;;8.90;99.90;;;;;;4950108;28;20427;-52
2023/01/15 10:36:03;;;;;;;4.10;1.10;;;9.10;99.90;;;;;;4950906;28;20421;-51
2023/01/15 10:38:36;;;;;;;2.80;1.40;;;9.30;99.90;;;;;;4950185;28;20947;-54
2023/01/15 10:41:29;;;;;;;1.83;1.30;;;9.20;99.90;;;;;;4950430;28;20410;-50
2023/01/15 10:44:01;;;;;;;2.37;1.30;;;9.30;99.90;;;;;;4950310;28;20839;-51
2023/01/15 10:46:32;;;;;;;3.00;1.30;;;9.80;99.90;;;;;;4950622;28;20437;-51
2023/01/15 10:49:02;;;;;;;4.60;1.77;;;9.30;99.90;;;;;;5016182;28;20426;-51
2023/01/15 10:51:42;;;;;;;2.53;1.60;;;9.60;99.90;;;;;;4950134;28;20911;-53
2023/01/15 10:54:18;;;;;;;2.30;1.43;;;8.90;99.90;;;;;;4950475;28;20991;-51
2023/01/15 10:56:49;;;;;;;3.20;1.60;;;9.80;99.90;;;;;;4950215;28;20936;-51
2023/01/15 10:59:21;;;;;;;1.80;1.23;;;9.20;99.90;;;;;;4949644;29;20476;-52
2023/01/15 11:01:53;;;;;;;2.40;1.47;;;9.50;99.90;;;;;;4950376;28;20437;-51
2023/01/15 11:04:20;;;;;;;6.60;1.87;;;9.70;99.90;;;;;;4953381;28;20806;-52
2023/01/15 11:06:48;;;;;;;2.60;1.40;;;9.50;99.90;;;;;;4953493;28;20927;-51
2023/01/15 11:09:21;;;;;;;2.90;1.93;;;9.90;99.90;;;;;;4953569;28;20414;-52
2023/01/15 11:20:17;;;;;;;5.00;1.90;;;9.70;99.90;;;;;;4952949;28;20484;-51
2023/01/15 11:22:45;;;;;;;4.33;2.70;;;9.90;99.90;;;;;;4952894;28;20414;-50
2023/01/15 11:25:12;;;;;;;3.20;1.50;;;9.70;99.90;;;;;;4953212;29;20887;-51
2023/01/15 11:27:39;;;;;;;2.60;1.30;;;9.70;99.90;;;;;;4953234;28;20431;-51
2023/01/15 11:30:24;;;;;;;2.70;1.40;;;9.80;99.90;;;;;;4952963;28;20435;-51
2023/01/15 11:32:56;;;;;;;2.70;1.50;;;9.70;99.90;;;;;;4952695;28;20472;-52
2023/01/15 11:35:23;;;;;;;2.10;1.40;;;10.10;99.90;;;;;;4953142;28;20760;-50
2023/01/15 11:38:02;;;;;;;4.60;1.50;;;9.90;99.90;;;;;;4953026;28;20417;-52
2023/01/15 11:40:28;;;;;;;3.43;2.37;;;9.90;99.90;;;;;;4952836;28;20795;-51
2023/01/15 11:51:28;;;;;;;3.10;1.60;;;9.60;99.90;;;;;;4953216;28;20439;-51
2023/01/15 11:54:01;;;;;;;2.67;1.53;;;9.50;99.90;;;;;;4953308;28;20474;-51
2023/01/15 11:56:31;;;;;;;3.33;2.03;;;9.90;99.90;;;;;;4953370;28;20859;-52
2023/01/15 11:59:01;;;;;;;5.90;1.90;;;10.10;99.90;;;;;;5019151;28;20454;-51
2023/01/15 12:01:31;;;;;;;2.50;1.70;;;9.80;99.90;;;;;;4952807;28;20788;-51
2023/01/15 12:03:59;;;;;;;2.17;1.20;;;9.70;99.90;;;;;;5019401;28;20472;-51
2023/01/15 12:06:27;;;;;;;2.80;1.80;;;9.70;99.90;;;;;;4952867;28;20414;-52
2023/01/15 12:08:59;;;;;;;2.80;1.37;;;9.80;99.90;;;;;;4952398;29;20742;-52
2023/01/15 12:11:43;;;;;;;6.03;1.80;;;10.00;99.90;;;;;;4952251;29;20775;-52
2023/01/15 12:14:38;;;;;;;3.30;1.30;;;9.50;99.90;;;;;;4951287;28;20426;-52
2023/01/15 12:17:15;;;;;;;2.60;1.17;;;9.40;99.90;;;;;;4952396;28;20493;-51
2023/01/15 12:19:50;;;;;;;2.53;1.50;;;9.40;99.90;;;;;;4951763;28;20461;-51
2023/01/15 12:22:29;;;;;;;3.50;1.60;;;9.00;99.90;;;;;;4952392;28;20409;-51
2023/01/15 12:25:15;;;;;;;4.90;2.27;;;9.50;99.90;;;;;;5018710;28;20459;-52
2023/01/15 12:28:04;;;;;;;6.10;2.13;;;9.70;99.90;;;;;;4952426;28;20449;-50
2023/01/15 12:30:39;;;;;;;5.77;2.93;;;9.60;99.90;;;;;;4952366;28;20406;-51
2023/01/15 12:33:17;;;;;;;5.67;2.00;;;9.90;99.90;;;;;;4951910;28;20467;-51
2023/01/15 12:35:49;;;;;;;6.93;2.97;;;9.60;99.90;;;;;;4951839;28;20410;-52
2023/01/15 12:38:20;;;;;;;4.67;2.40;;;9.80;99.90;;;;;;4951824;29;20431;-51
2023/01/15 12:40:51;;;;;;;4.20;2.70;;;9.70;99.90;;;;;;4951844;28;20481;-52
2023/01/15 12:46:15;;;;;;;5.23;2.10;;;9.40;99.90;;;;;;4951658;28;20463;-52
2023/01/15 12:48:50;;;;;;;3.40;2.40;;;9.50;99.90;;;;;;4951309;29;20437;-51
2023/01/15 12:51:25;;;;;;;3.20;1.77;;;9.50;99.90;;;;;;4951992;29;20787;-51
2023/01/15 12:53:57;;;;;;;2.80;1.90;;;9.60;99.90;;;;;;5018056;28;20454;-51
2023/01/15 12:56:29;;;;;;;3.60;1.60;;;9.00;99.90;;;;;;4952489;28;20424;-53
2023/01/15 12:59:01;;;;;;;4.30;1.50;;;9.90;99.90;;;;;;4951258;28;20450;-51
2023/01/15 13:01:36;;;;;;;3.90;1.50;;;9.60;99.90;;;;;;4952004;29;20522;-53
2023/01/15 13:04:12;;;;;;;2.97;1.30;;;9.30;99.90;;;;;;4951513;28;20467;-53
2023/01/15 13:06:44;;;;;;;2.80;1.30;;;9.50;99.90;;;;;;4951777;28;20421;-51
2023/01/15 13:09:19;;;;;;;4.07;1.80;;;9.00;99.90;;;;;;4951300;28;20401;-51
2023/01/15 13:11:47;;;;;;;3.90;1.93;;;9.50;99.90;;;;;;4951496;28;20420;-52
2023/01/15 13:14:16;;;;;;;2.47;1.43;;;9.50;99.90;;;;;;4952106;28;20426;-51
2023/01/15 13:16:52;;;;;;;3.13;1.60;;;9.70;99.90;;;;;;4951474;28;20463;-51
2023/01/15 13:19:34;;;;;;;6.20;1.53;;;9.80;99.90;;;;;;4951253;28;20453;-51
2023/01/15 13:22:06;;;;;;;2.27;1.47;;;9.50;99.90;;;;;;4951280;29;20449;-53
2023/01/15 13:25:21;;;;;;;4.93;2.30;;;9.30;99.90;;;;;;4951074;28;20434;-53
2023/01/15 13:28:00;;;;;;;3.77;2.03;;;9.60;99.90;;;;;;4951238;28;20413;-51
2023/01/15 13:30:40;;;;;;;4.70;1.97;;;9.80;99.90;;;;;;4951070;29;20435;-51
2023/01/15 13:33:19;;;;;;;7.10;2.30;;;9.20;99.90;;;;;;4951415;28;20429;-51
2023/01/15 13:35:51;;;;;;;2.10;1.50;;;9.20;99.90;;;;;;4951391;28;20418;-53
2023/01/15 13:38:20;;;;;;;4.00;1.60;;;9.10;99.90;;;;;;4950928;28;20448;-51
2023/01/15 13:40:50;;;;;;;7.20;1.83;;;8.80;99.90;;;;;;4951189;29;20464;-52
2023/01/15 13:43:31;;;;;;;4.10;1.90;;;9.10;99.90;;;;;;4951202;28;20477;-51
2023/01/15 13:45:58;;;;;;;4.90;2.03;;;8.80;99.90;;;;;;4951597;28;20438;-52
2023/01/15 13:48:30;;;;;;;3.23;1.97;;;9.20;99.90;;;;;;4950688;28;20416;-52
2023/01/15 13:50:59;;;;;;;4.83;2.77;;;9.00;99.90;;;;;;4950937;28;20530;-53
2023/01/15 13:53:28;;;;;;;4.83;2.40;;;8.90;99.90;;;;;;4950598;28;20426;-52
2023/01/15 13:55:57;;;;;;;4.27;1.90;;;8.70;99.90;;;;;;4950909;28;20800;-53
2023/01/15 13:58:27;;;;;;;3.40;1.80;;;8.70;99.90;;;;;;4950133;29;20777;-53
2023/01/15 14:01:05;;;;;;;4.50;1.80;;;8.70;99.90;;;;;;4950777;28;20981;-52
2023/01/15 14:03:34;;;;;;;4.53;2.17;;;8.70;99.90;;;;;;4950643;28;20437;-52
2023/01/15 14:06:02;;;;;;;3.47;1.80;;;8.80;99.90;;;;;;4951000;28;20439;-51